Pretty Hana — DSQJ5 — position and weather

sailwx.info

Track history (hours):
 
Tides and Currents Weather Stations Pressure Air Temp Water Temp Dewpoint Dewpoint Depression Visibility Wind Speed Wind Dir Waves Ship Positions

Pretty Hana

Last reported at 2017-Jan-24 00:31 UTC. Time now 2017-Jan-24 01:00 UTC.
Position N 31°47' E 120°59'.

Length 64 m; draft 4.5 m.

Type: Ship (hazmat cat B). MMSI: 441600000.

Date/timePositionNaut miles runAvg speedWind from/ knotsBaromVisibWave heightAir tempDewpointWater temp
2017-Jan-24 00:31N 31°47' E 120°59'8 8.8
2017-Jan-23 23:33N 31°43' E 121°08'9 8.6
2017-Jan-23 22:33N 31°38' E 121°16'6 5.7
2017-Jan-23 21:33N 31°34' E 121°20'0 0.0
2017-Jan-23 20:33N 31°34' E 121°20'0 0.1
2017-Jan-23 19:33N 31°34' E 121°21'0 0.1
2017-Jan-23 18:33N 31°34' E 121°20'0 0.1
2017-Jan-23 17:33N 31°34' E 121°20'0 0.0
2017-Jan-23 16:33N 31°34' E 121°20'0 0.1
2017-Jan-23 15:33N 31°34' E 121°20'0 0.0
2017-Jan-23 14:33N 31°34' E 121°20'0 0.0
2017-Jan-23 13:33N 31°34' E 121°20'2 2.1
2017-Jan-23 12:34N 31°32' E 121°22'1010.4
2017-Jan-23 11:33N 31°25' E 121°31'1010.4
2017-Jan-23 10:34N 31°20' E 121°41'1010.1
2017-Jan-23 09:33N 31°13' E 121°49'9 9.2
2017-Jan-23 08:33N 31°07' E 121°57'10 9.1
2017-Jan-23 07:27N 31°03' E 122°09'  
Track history (hours):
 
Tides and Currents Weather Stations Pressure Air Temp Water Temp Dewpoint Dewpoint Depression Visibility Wind Speed Wind Dir Waves Ship Positions

Pretty Hana

Last reported at 2017-Jan-24 00:31 UTC. Time now 2017-Jan-24 01:00 UTC.
Position N 31°47' E 120°59'.

Length 64 m; draft 4.5 m.

Type: Ship (hazmat cat B). MMSI: 441600000.

Date/timePositionNaut miles runAvg speedWind from/ knotsBaromVisibWave heightAir tempDewpointWater temp
2017-Jan-24 00:31N 31°47' E 120°59'8 8.8
2017-Jan-23 23:33N 31°43' E 121°08'9 8.6
2017-Jan-23 22:33N 31°38' E 121°16'6 5.7
2017-Jan-23 21:33N 31°34' E 121°20'0 0.0
2017-Jan-23 20:33N 31°34' E 121°20'0 0.1
2017-Jan-23 19:33N 31°34' E 121°21'0 0.1
2017-Jan-23 18:33N 31°34' E 121°20'0 0.1
2017-Jan-23 17:33N 31°34' E 121°20'0 0.0
2017-Jan-23 16:33N 31°34' E 121°20'0 0.1
2017-Jan-23 15:33N 31°34' E 121°20'0 0.0
2017-Jan-23 14:33N 31°34' E 121°20'0 0.0
2017-Jan-23 13:33N 31°34' E 121°20'2 2.1
2017-Jan-23 12:34N 31°32' E 121°22'1010.4
2017-Jan-23 11:33N 31°25' E 121°31'1010.4
2017-Jan-23 10:34N 31°20' E 121°41'1010.1
2017-Jan-23 09:33N 31°13' E 121°49'9 9.2
2017-Jan-23 08:33N 31°07' E 121°57'10 9.1
2017-Jan-23 07:27N 31°03' E 122°09'  

Dump ship's entire track history